sensor_id;sensor_type;location;lat;lon;timestamp;temperature;humidity
30379;DHT22;17168;49.164;9.060;2024-01-11T00:01:37;0.20;59.70
30379;DHT22;17168;49.164;9.060;2024-01-11T00:04:10;0.00;60.30
30379;DHT22;17168;49.164;9.060;2024-01-11T00:06:42;-0.20;60.60
30379;DHT22;17168;49.164;9.060;2024-01-11T00:09:18;-0.30;60.90
30379;DHT22;17168;49.164;9.060;2024-01-11T00:11:50;-0.50;61.40
30379;DHT22;17168;49.164;9.060;2024-01-11T00:14:22;-0.60;61.80
30379;DHT22;17168;49.164;9.060;2024-01-11T00:16:54;-0.70;62.20
30379;DHT22;17168;49.164;9.060;2024-01-11T00:19:26;-0.80;62.50
30379;DHT22;17168;49.164;9.060;2024-01-11T00:21:59;-0.90;63.10
30379;DHT22;17168;49.164;9.060;2024-01-11T00:24:34;-1.00;63.50
30379;DHT22;17168;49.164;9.060;2024-01-11T00:27:10;-1.10;63.90
30379;DHT22;17168;49.164;9.060;2024-01-11T00:29:42;-1.10;64.10
30379;DHT22;17168;49.164;9.060;2024-01-11T00:32:15;-1.20;64.10
30379;DHT22;17168;49.164;9.060;2024-01-11T00:34:47;-1.30;64.40
30379;DHT22;17168;49.164;9.060;2024-01-11T00:37:19;-1.40;64.60
30379;DHT22;17168;49.164;9.060;2024-01-11T00:39:54;-1.40;64.90
30379;DHT22;17168;49.164;9.060;2024-01-11T00:42:26;-1.40;65.10
30379;DHT22;17168;49.164;9.060;2024-01-11T00:44:58;-1.50;65.20
30379;DHT22;17168;49.164;9.060;2024-01-11T00:47:30;-1.50;65.30
30379;DHT22;17168;49.164;9.060;2024-01-11T00:50:04;-1.50;65.40
30379;DHT22;17168;49.164;9.060;2024-01-11T00:52:36;-1.60;65.60
30379;DHT22;17168;49.164;9.060;2024-01-11T00:55:11;-1.60;65.80
30379;DHT22;17168;49.164;9.060;2024-01-11T00:57:43;-1.60;66.00
30379;DHT22;17168;49.164;9.060;2024-01-11T01:00:16;-1.70;66.10
30379;DHT22;17168;49.164;9.060;2024-01-11T01:02:48;-1.70;66.20
30379;DHT22;17168;49.164;9.060;2024-01-11T01:05:20;-1.70;66.30
30379;DHT22;17168;49.164;9.060;2024-01-11T01:07:52;-1.80;66.50
30379;DHT22;17168;49.164;9.060;2024-01-11T01:10:27;-1.80;66.50
30379;DHT22;17168;49.164;9.060;2024-01-11T01:13:00;-1.80;66.70
30379;DHT22;17168;49.164;9.060;2024-01-11T01:15:32;-1.80;66.90
30379;DHT22;17168;49.164;9.060;2024-01-11T01:18:04;-1.90;67.00
30379;DHT22;17168;49.164;9.060;2024-01-11T01:20:37;-1.90;67.20
30379;DHT22;17168;49.164;9.060;2024-01-11T01:23:09;-1.90;67.30
30379;DHT22;17168;49.164;9.060;2024-01-11T01:25:44;-2.00;67.30
30379;DHT22;17168;49.164;9.060;2024-01-11T01:28:17;-2.00;67.40
30379;DHT22;17168;49.164;9.060;2024-01-11T01:30:49;-2.00;67.70
30379;DHT22;17168;49.164;9.060;2024-01-11T01:33:21;-2.00;67.90
30379;DHT22;17168;49.164;9.060;2024-01-11T01:35:53;-2.10;67.80
30379;DHT22;17168;49.164;9.060;2024-01-11T01:38:26;-2.00;67.90
30379;DHT22;17168;49.164;9.060;2024-01-11T01:41:01;-2.10;67.90
30379;DHT22;17168;49.164;9.060;2024-01-11T01:43:33;-2.10;68.10
30379;DHT22;17168;49.164;9.060;2024-01-11T01:46:05;-2.10;68.30
30379;DHT22;17168;49.164;9.060;2024-01-11T01:48:37;-2.10;68.40
30379;DHT22;17168;49.164;9.060;2024-01-11T01:51:10;-2.10;68.60
30379;DHT22;17168;49.164;9.060;2024-01-11T01:53:42;-2.10;68.70
30379;DHT22;17168;49.164;9.060;2024-01-11T01:56:18;-2.10;68.80
30379;DHT22;17168;49.164;9.060;2024-01-11T01:58:52;-2.10;68.90
30379;DHT22;17168;49.164;9.060;2024-01-11T02:01:25;-2.10;69.10
30379;DHT22;17168;49.164;9.060;2024-01-11T02:03:59;-2.10;69.20
30379;DHT22;17168;49.164;9.060;2024-01-11T02:06:33;-2.10;69.40
30379;DHT22;17168;49.164;9.060;2024-01-11T02:09:06;-2.10;70.00
30379;DHT22;17168;49.164;9.060;2024-01-11T02:11:44;-2.10;69.40
30379;DHT22;17168;49.164;9.060;2024-01-11T02:14:16;-2.10;69.60
30379;DHT22;17168;49.164;9.060;2024-01-11T02:16:49;-2.10;69.60
30379;DHT22;17168;49.164;9.060;2024-01-11T02:19:22;-2.10;69.60
30379;DHT22;17168;49.164;9.060;2024-01-11T02:21:54;-2.10;69.60
30379;DHT22;17168;49.164;9.060;2024-01-11T02:24:30;-2.10;69.60
30379;DHT22;17168;49.164;9.060;2024-01-11T02:27:04;-2.10;69.70
30379;DHT22;17168;49.164;9.060;2024-01-11T02:29:40;-2.10;69.70
30379;DHT22;17168;49.164;9.060;2024-01-11T02:32:12;-2.10;69.70
30379;DHT22;17168;49.164;9.060;2024-01-11T02:34:45;-2.10;69.90
30379;DHT22;17168;49.164;9.060;2024-01-11T02:37:18;-2.20;70.10
30379;DHT22;17168;49.164;9.060;2024-01-11T02:39:53;-2.20;70.20
30379;DHT22;17168;49.164;9.060;2024-01-11T02:42:25;-2.20;70.20
30379;DHT22;17168;49.164;9.060;2024-01-11T02:44:58;-2.20;70.10
30379;DHT22;17168;49.164;9.060;2024-01-11T02:47:31;-2.20;70.10
30379;DHT22;17168;49.164;9.060;2024-01-11T02:50:04;-2.20;70.00
30379;DHT22;17168;49.164;9.060;2024-01-11T02:52:36;-2.20;70.00
30379;DHT22;17168;49.164;9.060;2024-01-11T02:55:14;-2.20;70.10
30379;DHT22;17168;49.164;9.060;2024-01-11T02:57:49;-2.20;70.20
30379;DHT22;17168;49.164;9.060;2024-01-11T03:00:21;-2.30;70.10
30379;DHT22;17168;49.164;9.060;2024-01-11T03:02:55;-2.30;70.20
30379;DHT22;17168;49.164;9.060;2024-01-11T03:05:27;-2.30;70.30
30379;DHT22;17168;49.164;9.060;2024-01-11T03:08:00;-2.30;70.40
30379;DHT22;17168;49.164;9.060;2024-01-11T03:10:37;-2.30;70.60
30379;DHT22;17168;49.164;9.060;2024-01-11T03:13:10;-2.40;70.60
30379;DHT22;17168;49.164;9.060;2024-01-11T03:15:42;-2.40;70.60
30379;DHT22;17168;49.164;9.060;2024-01-11T03:18:15;-2.40;70.70
30379;DHT22;17168;49.164;9.060;2024-01-11T03:20:47;-2.40;70.80
30379;DHT22;17168;49.164;9.060;2024-01-11T03:23:19;-2.40;70.70
30379;DHT22;17168;49.164;9.060;2024-01-11T03:25:54;-2.40;71.20
30379;DHT22;17168;49.164;9.060;2024-01-11T03:28:27;-2.50;70.60
30379;DHT22;17168;49.164;9.060;2024-01-11T03:30:59;-2.50;70.70
30379;DHT22;17168;49.164;9.060;2024-01-11T03:33:31;-2.50;70.80
30379;DHT22;17168;49.164;9.060;2024-01-11T03:36:06;-2.50;71.00
30379;DHT22;17168;49.164;9.060;2024-01-11T03:38:39;-2.50;71.00
30379;DHT22;17168;49.164;9.060;2024-01-11T03:41:14;-2.50;71.00
30379;DHT22;17168;49.164;9.060;2024-01-11T03:43:46;-2.60;70.90
30379;DHT22;17168;49.164;9.060;2024-01-11T03:46:18;-2.60;70.90
30379;DHT22;17168;49.164;9.060;2024-01-11T03:48:51;-2.60;71.00
30379;DHT22;17168;49.164;9.060;2024-01-11T03:51:23;-2.60;71.10
30379;DHT22;17168;49.164;9.060;2024-01-11T03:53:55;-2.60;71.10
30379;DHT22;17168;49.164;9.060;2024-01-11T03:56:30;-2.60;71.30
30379;DHT22;17168;49.164;9.060;2024-01-11T03:59:02;-2.60;71.40
30379;DHT22;17168;49.164;9.060;2024-01-11T04:01:38;-2.70;71.40
30379;DHT22;17168;49.164;9.060;2024-01-11T04:04:10;-2.70;71.30
30379;DHT22;17168;49.164;9.060;2024-01-11T04:06:43;-2.70;71.80
30379;DHT22;17168;49.164;9.060;2024-01-11T04:09:15;-2.70;71.40
30379;DHT22;17168;49.164;9.060;2024-01-11T04:11:50;-2.70;71.60
30379;DHT22;17168;49.164;9.060;2024-01-11T04:14:22;-2.70;71.60
30379;DHT22;17168;49.164;9.060;2024-01-11T04:16:54;-2.70;71.70
30379;DHT22;17168;49.164;9.060;2024-01-11T04:19:27;-2.80;71.70
30379;DHT22;17168;49.164;9.060;2024-01-11T04:21:59;-2.80;71.70
30379;DHT22;17168;49.164;9.060;2024-01-11T04:24:31;-2.80;71.80
30379;DHT22;17168;49.164;9.060;2024-01-11T04:27:06;-2.80;71.80
30379;DHT22;17168;49.164;9.060;2024-01-11T04:29:38;-2.80;71.90
30379;DHT22;17168;49.164;9.060;2024-01-11T04:32:11;-2.80;72.00
30379;DHT22;17168;49.164;9.060;2024-01-11T04:34:43;-2.80;72.10
30379;DHT22;17168;49.164;9.060;2024-01-11T04:37:15;-2.80;72.20
30379;DHT22;17168;49.164;9.060;2024-01-11T04:39:47;-2.80;72.30
30379;DHT22;17168;49.164;9.060;2024-01-11T04:42:22;-2.80;72.30
30379;DHT22;17168;49.164;9.060;2024-01-11T04:44:55;-2.80;72.40
30379;DHT22;17168;49.164;9.060;2024-01-11T04:47:27;-2.80;72.40
30379;DHT22;17168;49.164;9.060;2024-01-11T04:49:59;-2.80;72.30
30379;DHT22;17168;49.164;9.060;2024-01-11T04:52:31;-2.80;72.50
30379;DHT22;17168;49.164;9.060;2024-01-11T04:55:04;-2.80;72.60
30379;DHT22;17168;49.164;9.060;2024-01-11T04:57:39;-2.80;72.90
30379;DHT22;17168;49.164;9.060;2024-01-11T05:00:12;-2.90;72.90
30379;DHT22;17168;49.164;9.060;2024-01-11T05:02:45;-2.90;73.00
30379;DHT22;17168;49.164;9.060;2024-01-11T05:05:17;-2.90;73.20
30379;DHT22;17168;49.164;9.060;2024-01-11T05:07:50;-2.80;73.40
30379;DHT22;17168;49.164;9.060;2024-01-11T05:10:22;-2.90;73.30
30379;DHT22;17168;49.164;9.060;2024-01-11T05:12:57;-2.90;73.40
30379;DHT22;17168;49.164;9.060;2024-01-11T05:15:29;-2.90;73.60
30379;DHT22;17168;49.164;9.060;2024-01-11T05:18:01;-2.90;73.50
30379;DHT22;17168;49.164;9.060;2024-01-11T05:20:34;-2.90;73.50
30379;DHT22;17168;49.164;9.060;2024-01-11T05:23:06;-2.90;73.60
30379;DHT22;17168;49.164;9.060;2024-01-11T05:25:39;-2.90;73.70
30379;DHT22;17168;49.164;9.060;2024-01-11T05:28:13;-2.90;73.90
30379;DHT22;17168;49.164;9.060;2024-01-11T05:30:46;-2.90;74.00
30379;DHT22;17168;49.164;9.060;2024-01-11T05:33:18;-2.80;74.20
30379;DHT22;17168;49.164;9.060;2024-01-11T05:35:51;-2.90;74.20
30379;DHT22;17168;49.164;9.060;2024-01-11T05:38:25;-2.90;74.20
30379;DHT22;17168;49.164;9.060;2024-01-11T05:40:57;-2.90;74.20
30379;DHT22;17168;49.164;9.060;2024-01-11T05:43:32;-2.90;74.10
30379;DHT22;17168;49.164;9.060;2024-01-11T05:46:04;-2.90;74.00
30379;DHT22;17168;49.164;9.060;2024-01-11T05:48:37;-2.90;74.10
30379;DHT22;17168;49.164;9.060;2024-01-11T05:51:12;-2.90;74.10
30379;DHT22;17168;49.164;9.060;2024-01-11T05:53:44;-2.80;74.20
30379;DHT22;17168;49.164;9.060;2024-01-11T05:56:19;-2.90;74.20
30379;DHT22;17168;49.164;9.060;2024-01-11T05:58:57;-2.90;74.20
30379;DHT22;17168;49.164;9.060;2024-01-11T06:01:31;-2.90;74.20
30379;DHT22;17168;49.164;9.060;2024-01-11T06:04:04;-2.90;74.20
30379;DHT22;17168;49.164;9.060;2024-01-11T06:06:37;-2.90;74.20
30379;DHT22;17168;49.164;9.060;2024-01-11T06:09:09;-2.90;74.20
30379;DHT22;17168;49.164;9.060;2024-01-11T06:11:42;-2.80;74.20
30379;DHT22;17168;49.164;9.060;2024-01-11T06:14:17;-2.80;74.20
30379;DHT22;17168;49.164;9.060;2024-01-11T06:16:49;-2.80;74.20
30379;DHT22;17168;49.164;9.060;2024-01-11T06:19:24;-2.80;74.20
30379;DHT22;17168;49.164;9.060;2024-01-11T06:21:56;-2.80;74.20
30379;DHT22;17168;49.164;9.060;2024-01-11T06:24:29;-2.80;74.20
30379;DHT22;17168;49.164;9.060;2024-01-11T06:27:01;-2.80;74.20
30379;DHT22;17168;49.164;9.060;2024-01-11T06:29:36;-2.80;74.20
30379;DHT22;17168;49.164;9.060;2024-01-11T06:32:10;-2.80;74.10
30379;DHT22;17168;49.164;9.060;2024-01-11T06:34:44;-2.80;74.00
30379;DHT22;17168;49.164;9.060;2024-01-11T06:37:20;-2.80;74.10
30379;DHT22;17168;49.164;9.060;2024-01-11T06:39:53;-2.80;74.00
30379;DHT22;17168;49.164;9.060;2024-01-11T07:13:53;-2.90;74.50
30379;DHT22;17168;49.164;9.060;2024-01-11T07:16:28;-3.00;74.40
30379;DHT22;17168;49.164;9.060;2024-01-11T07:19:05;-3.00;74.50
30379;DHT22;17168;49.164;9.060;2024-01-11T07:21:43;-3.00;74.80
30379;DHT22;17168;49.164;9.060;2024-01-11T07:24:20;-3.00;74.90
30379;DHT22;17168;49.164;9.060;2024-01-11T07:26:52;-3.00;75.00
30379;DHT22;17168;49.164;9.060;2024-01-11T07:29:49;-3.00;75.10
30379;DHT22;17168;49.164;9.060;2024-01-11T07:32:58;-3.00;75.10
30379;DHT22;17168;49.164;9.060;2024-01-11T07:35:49;-3.00;75.10
30379;DHT22;17168;49.164;9.060;2024-01-11T07:38:35;-3.00;75.10
30379;DHT22;17168;49.164;9.060;2024-01-11T07:41:31;-3.00;75.20
30379;DHT22;17168;49.164;9.060;2024-01-11T07:44:03;-3.00;75.20
30379;DHT22;17168;49.164;9.060;2024-01-11T07:46:42;-3.00;75.40
30379;DHT22;17168;49.164;9.060;2024-01-11T07:49:26;-3.00;75.40
30379;DHT22;17168;49.164;9.060;2024-01-11T07:52:30;-3.00;75.40
30379;DHT22;17168;49.164;9.060;2024-01-11T12:38:11;17.10;40.70
30379;DHT22;17168;49.164;9.060;2024-01-11T12:48:10;18.10;39.40
30379;DHT22;17168;49.164;9.060;2024-01-11T12:50:51;18.40;38.40
30379;DHT22;17168;49.164;9.060;2024-01-11T12:54:02;18.40;38.40
30379;DHT22;17168;49.164;9.060;2024-01-11T13:04:09;18.80;37.50
30379;DHT22;17168;49.164;9.060;2024-01-11T13:06:43;18.60;37.10
30379;DHT22;17168;49.164;9.060;2024-01-11T13:09:45;18.50;37.50
30379;DHT22;17168;49.164;9.060;2024-01-11T13:12:22;18.50;37.40
30379;DHT22;17168;49.164;9.060;2024-01-11T13:14:55;18.50;37.10
30379;DHT22;17168;49.164;9.060;2024-01-11T13:17:33;18.40;36.80
30379;DHT22;17168;49.164;9.060;2024-01-11T13:20:22;18.30;37.00
30379;DHT22;17168;49.164;9.060;2024-01-11T13:23:35;18.20;36.60
30379;DHT22;17168;49.164;9.060;2024-01-11T13:26:28;18.00;36.80
30379;DHT22;17168;49.164;9.060;2024-01-11T13:29:06;18.00;37.00
30379;DHT22;17168;49.164;9.060;2024-01-11T13:31:41;17.90;37.00
30379;DHT22;17168;49.164;9.060;2024-01-11T13:34:17;17.90;36.80
30379;DHT22;17168;49.164;9.060;2024-01-11T13:36:51;18.00;36.60
30379;DHT22;17168;49.164;9.060;2024-01-11T13:39:23;18.00;36.60
30379;DHT22;17168;49.164;9.060;2024-01-11T13:42:00;17.70;36.20
30379;DHT22;17168;49.164;9.060;2024-01-11T13:44:32;17.10;36.30
30379;DHT22;17168;49.164;9.060;2024-01-11T13:47:05;16.40;36.40
30379;DHT22;17168;49.164;9.060;2024-01-11T13:49:37;15.60;36.90
30379;DHT22;17168;49.164;9.060;2024-01-11T13:52:10;14.80;37.50
30379;DHT22;17168;49.164;9.060;2024-01-11T13:54:42;14.00;38.30
30379;DHT22;17168;49.164;9.060;2024-01-11T13:57:19;13.40;39.00
30379;DHT22;17168;49.164;9.060;2024-01-11T13:59:51;12.80;39.70
30379;DHT22;17168;49.164;9.060;2024-01-11T14:02:24;12.20;40.30
30379;DHT22;17168;49.164;9.060;2024-01-11T14:04:57;11.70;41.00
30379;DHT22;17168;49.164;9.060;2024-01-11T14:07:29;11.30;41.70
30379;DHT22;17168;49.164;9.060;2024-01-11T16:46:57;2.10;60.10
30379;DHT22;17168;49.164;9.060;2024-01-11T16:50:09;2.00;60.30
30379;DHT22;17168;49.164;9.060;2024-01-11T16:52:55;1.80;60.70
30379;DHT22;17168;49.164;9.060;2024-01-11T16:55:30;1.70;61.20
30379;DHT22;17168;49.164;9.060;2024-01-11T17:06:17;2.30;64.00
30379;DHT22;17168;49.164;9.060;2024-01-11T17:22:17;2.80;63.90
30379;DHT22;17168;49.164;9.060;2024-01-11T17:24:51;4.50;60.70
30379;DHT22;17168;49.164;9.060;2024-01-11T17:34:04;5.10;58.60
30379;DHT22;17168;49.164;9.060;2024-01-11T17:36:38;5.30;57.90
30379;DHT22;17168;49.164;9.060;2024-01-11T17:39:16;5.40;57.40
30379;DHT22;17168;49.164;9.060;2024-01-11T20:38:33;2.30;63.20
30379;DHT22;17168;49.164;9.060;2024-01-11T20:47:19;2.80;61.80
30379;DHT22;17168;49.164;9.060;2024-01-11T21:13:08;3.70;58.80
30379;DHT22;17168;49.164;9.060;2024-01-11T21:15:43;3.80;58.60
30379;DHT22;17168;49.164;9.060;2024-01-11T21:46:51;3.70;58.20
30379;DHT22;17168;49.164;9.060;2024-01-11T21:49:47;3.70;58.20
30379;DHT22;17168;49.164;9.060;2024-01-11T22:01:01;3.80;57.70
30379;DHT22;17168;49.164;9.060;2024-01-11T22:53:22;3.50;56.70
30379;DHT22;17168;49.164;9.060;2024-01-11T22:55:58;3.50;56.90
